• Join FlightAware (Why Join?)
  • Login
  • US Flag GB Flag 
12:22 EDT


 

Airport Tracker/Info


-or-


 

Live Flight TrackerFlight Track Log ✈ AWE479 ✈ 29-Apr-2013 ✈ KCLT - KDEN

Flight Track Log - Related Links

Times and Time Zones

All times are in EDT time to prevent confusion due to time zone crossing. See the AWE479 flight status page for this flight to view local times or setup timezone preferences in your user account.

Time Position Orientation Groundspeed Altitude Reporting Facility
EDT Latitude Longitude Course Direction KTS MPH feet Rate Location/Type
08:02 35.2247 -80.9572 270° West 151 174 1,400  Level Atlanta Center
08:03 35.2650 -80.9761 339° North 187 215 2,500 1,800 Climbing Atlanta Center
08:04 35.2663 -81.2175 242° Southwest  Level FlightAware Approximate
08:04 35.2881 -81.0694 287° West 250 288 5,500  Level Atlanta Center
08:05 35.2134 -81.3398 239° Southwest  Level FlightAware Approximate
08:05 35.2794 -81.1461 262° West 261 300 7,800  Level Atlanta Center
08:06 35.1544 -81.4579 239° Southwest  Level FlightAware Approximate
08:06 35.2689 -81.2331 262° West 261 300 8,900  Level Atlanta Center
08:07 35.1334 -81.5888 270° West  Level FlightAware Approximate
08:07 35.2331 -81.3131 241° Southwest 261 300 11,300  Level Atlanta Center
08:08 35.1914 -81.4058 241° Southwest 302 348 13,100 2,100 Climbing Atlanta Center
08:09 35.1517 -81.5011 243° Southwest 318 366 15,600 2,220 Climbing Atlanta Center
08:10 35.1394 -81.6233 263° West 324 373 17,600 1,740 Climbing Atlanta Center
08:11 35.1292 -81.7431 264° West 342 394 19,100 1,560 Climbing Atlanta Center
08:12 35.1211 -81.8625 265° West 353 406 20,800 1,620 Climbing Atlanta Center
08:13 35.1128 -81.9872 265° West 368 423 22,400 1,620 Climbing Atlanta Center
08:14 35.1022 -82.1144 264° West 368 423 24,100 1,500 Climbing Atlanta Center
08:15 35.0936 -82.2364 265° West 368 423 25,500 900 Climbing Atlanta Center
08:16 35.1100 -82.3631 279° West 368 423 26,000 240 Climbing Atlanta Center
08:17 35.1408 -82.4844 287° West 374 430 26,000  Level Atlanta Center
08:18 35.1758 -82.6108 289° West 379 436 26,000  Level Atlanta Center
08:19 35.2064 -82.7322 287° West 385 443 26,000  Level Atlanta Center
08:20 35.2389 -82.8589 287° West 385 443 26,000  Level Atlanta Center
08:21 35.2714 -82.9881 287° West 385 443 26,000 240 Level Atlanta Center
08:22 35.3058 -83.1225 287° West 398 458 26,500 660 Climbing Atlanta Center
08:23 35.3381 -83.2469 288° West 416 479 27,400 960 Climbing Atlanta Center
08:24 35.3703 -83.3892 286° West 429 494 28,500 780 Climbing Atlanta Center
08:25 35.4064 -83.5292 288° West 429 494 29,000 600 Climbing Atlanta Center
08:26 35.4403 -83.6742 286° West 440 506 29,800 1,200 Climbing Atlanta Center
08:27 35.4761 -83.8169 287° West 440 506 31,400 1,800 Climbing Atlanta Center
08:28 35.5347 -83.9392 301° West 427 491 33,500 1,260 Climbing Atlanta Center
08:29 35.5661 -84.0694 287° West 415 478 34,000 240 Climbing Atlanta Center
08:30 35.5972 -84.2097 285° West 410 472 34,000  Level Atlanta Center
08:31 35.6303 -84.3481 286° West 417 480 34,000  Level Atlanta Center
08:32 35.6611 -84.4911 285° West 429 494 34,000  Level Atlanta Center
08:33 35.6939 -84.6344 286° West 435 501 34,000  Level Atlanta Center
08:34 35.7244 -84.7781 285° West 435 501 34,100 480 Climbing Atlanta Center
08:36 35.7917 -85.0775 286° West 431 496 35,500 600 Climbing Memphis Center
08:37 35.8250 -85.2214 286° West 431 496 36,000 240 Climbing Memphis Center
08:38 35.8536 -85.3603 284° West 431 496 36,000  Level Memphis Center
08:39 35.8864 -85.5017 286° West 431 496 36,000  Level Memphis Center
08:40 35.9167 -85.6408 285° West 431 496 36,000  Level Memphis Center
08:41 35.9472 -85.7881 284° West 431 496 36,000  Level Memphis Center
08:42 35.9819 -85.9425 286° West 426 490 36,000  Level Memphis Center
08:43 36.0100 -86.0872 284° West 431 496 36,000  Level Memphis Center
08:44 36.0400 -86.2319 284° West 431 496 36,000  Level Memphis Center
08:45 36.0717 -86.3767 285° West 431 496 36,000  Level Memphis Center
08:46 36.0989 -86.5089 284° West 431 496 36,000  Level Memphis Center
08:47 36.1306 -86.6564 285° West 438 504 36,000  Level Memphis Center
08:48 36.1761 -86.7958 292° West 438 504 36,000  Level Memphis Center
08:49 36.2347 -86.9503 295° West 450 518 36,000  Level Memphis Center
08:50 36.2886 -87.0922 295° West 455 524 36,000  Level Memphis Center
08:51 36.3400 -87.2292 295° West 441 507 36,000  Level Memphis Center
08:52 36.3933 -87.3611 297° West 436 502 36,000  Level Memphis Center
08:53 36.4447 -87.5011 295° West 436 502 36,000  Level Memphis Center
08:54 36.4936 -87.6364 294° West 436 502 36,000  Level Memphis Center
08:55 36.5397 -87.7561 296° West 436 502 36,000  Level Memphis Center
08:56 36.5906 -87.8914 295° West 436 502 36,000  Level Memphis Center
08:57 36.6392 -88.0297 294° West 436 502 36,000  Level Memphis Center
08:58 36.6981 -88.1781 296° West 436 502 36,000  Level Memphis Center
08:59 36.7461 -88.3139 294° West 436 502 36,000  Level Memphis Center
09:00 36.7942 -88.4500 294° West 436 502 36,000  Level Memphis Center
09:01 36.8442 -88.5836 295° West 436 502 36,000  Level Memphis Center
09:02 36.8939 -88.7225 294° West 436 502 36,100  Climbing Memphis Center
09:03 36.9417 -88.8617 293° West 436 502 36,000 -60 Descending Memphis Center
09:05 37.0258 -89.1011 294° West 428 493 36,000  Level Kansas City Center
09:06 37.0739 -89.2378 294° West 429 494 36,000  Level Kansas City Center
09:07 37.1311 -89.4014 294° West 430 495 36,000  Level Kansas City Center
09:08 37.1792 -89.5389 294° West 432 497 36,000  Level Kansas City Center
09:09 37.2267 -89.6767 293° West 432 497 36,000  Level Kansas City Center
09:10 37.2739 -89.8147 293° West 431 496 36,000  Level Kansas City Center
09:11 37.3217 -89.9503 294° West 429 494 36,000  Level Kansas City Center
09:12 37.3686 -90.0867 293° West 427 491 36,000  Level Kansas City Center
09:13 37.4131 -90.2208 293° West 428 493 36,000  Level Kansas City Center
09:14 37.4708 -90.3917 293° West 431 496 36,000  Level Kansas City Center
09:15 37.5158 -90.5239 293° West 427 491 36,000  Level Kansas City Center
09:16 37.5619 -90.6631 293° West 427 491 36,000  Level Kansas City Center
09:17 37.6108 -90.8092 293° West 426 490 36,000  Level Kansas City Center
09:18 37.6533 -90.9389 293° West 428 493 36,000  Level Kansas City Center
09:19 37.7025 -91.0883 293° West 430 495 36,000  Level Kansas City Center
09:20 37.7489 -91.2278 293° West 429 494 36,000  Level Kansas City Center
09:21 37.7936 -91.3669 292° West 428 493 36,000  Level Kansas City Center
09:22 37.8397 -91.5061 293° West 429 494 36,000  Level Kansas City Center
09:23 37.8847 -91.6456 292° West 428 493 36,000  Level Kansas City Center
09:24 37.9383 -91.8136 292° West 429 494 36,000  Level Kansas City Center
09:25 37.9844 -91.9525 293° West 428 493 36,000  Level Kansas City Center
09:26 38.0333 -92.0778 296° West 426 490 36,000  Level Kansas City Center
09:27 38.0917 -92.2078 300° West 425 489 36,000  Level Kansas City Center
09:28 38.1489 -92.3372 299° West 424 488 36,000  Level Kansas City Center
09:29 38.2219 -92.4950 301° West 424 488 36,000  Level Kansas City Center
09:31 38.2786 -92.6247 299° West 422 486 36,000  Level Kansas City Center
09:32 38.3356 -92.7539 299° West 421 484 36,000  Level Kansas City Center
09:33 38.3919 -92.8822 299° West 417 480 36,000  Level Kansas City Center
09:34 38.4478 -93.0119 299° West 417 480 36,000  Level Kansas City Center
09:35 38.5044 -93.1428 299° West 419 482 36,000  Level Kansas City Center
09:36 38.5606 -93.2753 298° West 422 486 36,000  Level Kansas City Center
09:37 38.6286 -93.4308 299° West 420 483 36,000  Level Kansas City Center
09:38 38.6842 -93.5614 299° West 418 481 36,000  Level Kansas City Center
09:39 38.7386 -93.6925 298° West 417 480 36,000  Level Kansas City Center
09:40 38.7986 -93.8311 299° West 419 482 36,000  Level Kansas City Center
09:41 38.8514 -93.9567 298° West 419 482 36,000  Level Kansas City Center
09:42 38.9131 -94.1039 298° West 419 482 36,000  Level Kansas City Center
09:43 38.9653 -94.2297 298° West 417 480 36,000  Level Kansas City Center
09:44 39.0186 -94.3558 299° West 419 482 36,000  Level Kansas City Center
09:45 39.0789 -94.5014 298° West 413 475 36,000  Level Kansas City Center
09:46 39.1303 -94.6258 298° West 413 475 36,000  Level Kansas City Center
09:47 39.1892 -94.7706 298° West 410 472 36,000  Level Kansas City Center
09:48 39.2414 -94.8978 298° West 423 487 36,000  Level Kansas City Center
09:49 39.3008 -95.0417 298° West 412 474 36,000  Level Kansas City Center
09:50 39.3575 -95.1828 297° West 411 473 36,000  Level Kansas City Center
09:51 39.4117 -95.3142 298° West 415 478 36,000  Level Kansas City Center
09:52 39.4678 -95.4583 297° West 416 479 36,000  Level Kansas City Center
09:53 39.5183 -95.5833 298° West 413 475 36,000  Level Kansas City Center
09:54 39.5686 -95.7086 298° West 408 470 36,000  Level Kansas City Center
09:55 39.6256 -95.8522 297° West 402 463 36,000  Level Kansas City Center
09:56 39.6747 -95.9758 297° West 403 464 36,000  Level Kansas City Center
09:57 39.7314 -96.1222 297° West 405 466 36,000  Level Kansas City Center
09:58 39.7794 -96.2431 297° West 407 468 36,000  Level Kansas City Center
09:59 39.8333 -96.3814 297° West 406 467 36,000  Level Kansas City Center
10:00 39.8847 -96.5122 297° West 405 466 36,000  Level Kansas City Center
10:02 39.9478 -96.6756 297° West 406 467 36,000  Level Minneapolis Center
10:03 39.9978 -96.8064 297° West 404 465 36,000  Level Minneapolis Center
10:04 40.0483 -96.9375 297° West 403 464 36,000  Level Minneapolis Center
10:05 40.0981 -97.0675 297° West 401 461 36,000  Level Minneapolis Center
10:06 40.1472 -97.1981 296° West 399 459 36,000  Level Minneapolis Center
10:07 40.2031 -97.3461 296° West 396 456 36,000  Level Minneapolis Center
10:08 40.2525 -97.4750 297° West 396 456 36,000  Level Minneapolis Center
10:09 40.3106 -97.6319 296° West 399 459 36,000  Level Minneapolis Center
10:10 40.3597 -97.7636 296° West 401 461 36,000  Level Minneapolis Center
10:11 40.4081 -97.8942 296° West 399 459 36,000  Level Minneapolis Center
10:12 40.4661 -98.0525 296° West 400 460 36,000  Level Minneapolis Center
10:13 40.5147 -98.1844 296° West 400 460 36,000  Level Minneapolis Center
10:14 40.5628 -98.3156 296° West 398 458 36,000  Level Minneapolis Center
10:15 40.6081 -98.4781 290° West 394 453 36,000  Level Minneapolis Center
10:16 40.6217 -98.6228 277° West 395 455 36,000  Level Minneapolis Center
10:17 40.6347 -98.7669 277° West 395 455 36,000  Level Minneapolis Center
10:18 40.6478 -98.9128 277° West 396 456 36,000  Level Minneapolis Center
10:19 40.6603 -99.0603 276° West 400 460 36,000  Level Minneapolis Center
10:20 40.6731 -99.2092 277° West 404 465 36,000  Level Minneapolis Center
10:21 40.6861 -99.3594 277° West 408 470 36,000  Level Minneapolis Center
10:22 40.6986 -99.5103 276° West 410 472 36,000  Level Minneapolis Center
10:24 40.7108 -99.6606 276° West 411 473 36,000  Level Minneapolis Center
10:25 40.7231 -99.8108 276° West 411 473 36,000  Level Minneapolis Center
10:26 40.7356 -99.9636 276° West 414 476 36,000  Level Minneapolis Center
10:27 40.7489 -100.1453 276° West 414 476 36,000  Level Minneapolis Center
10:28 40.7614 -100.2956 276° West 413 475 36,000  Level Minneapolis Center
10:29 40.7731 -100.4772 275° West 412 474 36,000  Level Denver Center
10:30 40.7819 -100.6225 275° West 414 476 36,000  Level Denver Center
10:31 40.7667 -100.7761 263° West 425 489 36,000  Level Denver Center
10:32 40.7381 -100.9483 258° West 423 487 36,000  Level Denver Center
10:33 40.7103 -101.1164 258° West 419 482 36,000  Level Denver Center
10:35 40.6556 -101.4278 257° West 423 487 36,000  Level Denver Center
10:36 40.6253 -101.5947 257° West 421 484 36,000  Level Denver Center
10:37 40.5997 -101.7378 257° West 420 483 36,000  Level Denver Center
10:38 40.5697 -101.9058 257° West 422 486 36,000  Level Denver Center
10:39 40.5425 -102.0486 256° West 422 486 36,000  Level Denver Center
10:40 40.5117 -102.2169 257° West 422 486 36,000  Level Denver Center
10:41 40.4861 -102.3606 257° West 423 487 36,000 -60 Level Denver Center
10:42 40.4581 -102.5039 256° West 423 487 35,900 -1,020 Descending Denver Center
10:43 40.4256 -102.6836 257° West 430 495 33,900 -2,520 Descending Denver Center
10:45 40.3958 -102.8414 256° West 441 507 30,800 -2,700 Descending Denver Center
10:46 40.3653 -103.0008 256° West 447 514 28,400 -2,160 Descending Denver Center
10:47 40.3364 -103.1558 256° West 437 503 26,400 -1,980 Descending Denver Center
10:48 40.3086 -103.2942 255° West 394 453 24,300 -1,980 Descending Denver Center
10:49 40.2836 -103.4283 256° West 378 435 22,300 -1,800 Descending Denver Center
10:50 40.2581 -103.5586 256° West 368 423 20,600 -1,740 Descending Denver Center
10:51 40.2297 -103.7031 256° West 349 402 18,800 -1,500 Descending Denver Center
10:52 40.2058 -103.8189 255° West 340 391 17,600 -1,200 Descending Denver Center
10:53 40.2094 -103.9322 272° West 291 335 16,400 -1,260 Descending Denver Center
10:54 40.2175 -104.0350 276° West 287 330 15,100 -1,260 Descending Denver Center
10:55 40.2275 -104.1336 278° West 277 319 13,800 -1,260 Descending Denver Center
10:56 40.2358 -104.2353 276° West 263 303 12,500 -1,140 Descending Denver Center
10:57 40.2508 -104.3247 282° West 252 290 11,500 -1,140 Descending Denver Center
10:58 40.2675 -104.4164 283° West 237 273 10,200 -1,260 Descending Denver Center
10:59 40.2478 -104.4897 251° West 236 272 8,900 -1,200 Descending Denver Center
11:00 40.1886 -104.5342 210° Southwest 227 261 7,800 -960 Descending Denver Center
11:01 40.1319 -104.5756 209° Southwest 230 265 7,000 -600 Descending Denver Center
11:01 40.1167 -104.5833 201° Southwest 204 235 7,000  Level Denver TRACON
11:02 40.0667 -104.6167 207° Southwest 180 207 7,000  Level Denver TRACON